West Chester, Ohio
Current Conditions -  °F | °C
As of 4:53 PM on Monday 20 Oct 2014 (Local Time) from KHAO Reporting Station
Broken Clouds Broken Clouds  
Wind Chill: 63°   Ceiling: 5500
Heat Index: 63°   Visibility: 10mi
Dew Point: 54°   Wind: 0mph
Humidity: 72%   Direction: NA
Pressure: 29.86"   Gusts: NA
Location:  39.33°N, 84.4°W
Report Text: KHAO 202053Z AUTO 00000KT 10SM SCT039 SCT047 BKN055 17/12 A2986 RMK AO2 SLP111 60003 T01720122 56009
Loading
Personal Weather Stations






























Interactive Weather Map New forecast layout! Learn more

10-Day Weather Forecast

Advertisements
Track Severe Weather on mobile